sensor_id;sensor_type;location;lat;lon;timestamp;P1;durP1;ratioP1;P2;durP2;ratioP2
12145;SDS011;6136;47.032;15.398;2023-05-23T00:01:12;9.87;;;6.73;;
12145;SDS011;6136;47.032;15.398;2023-05-23T00:03:42;9.63;;;6.20;;
12145;SDS011;6136;47.032;15.398;2023-05-23T00:06:11;10.77;;;7.10;;
12145;SDS011;6136;47.032;15.398;2023-05-23T00:08:40;9.17;;;7.63;;
12145;SDS011;6136;47.032;15.398;2023-05-23T00:11:09;7.80;;;6.53;;
12145;SDS011;6136;47.032;15.398;2023-05-23T00:13:38;14.23;;;6.77;;
12145;SDS011;6136;47.032;15.398;2023-05-23T00:16:07;8.27;;;6.80;;
12145;SDS011;6136;47.032;15.398;2023-05-23T00:18:36;9.27;;;7.47;;
12145;SDS011;6136;47.032;15.398;2023-05-23T00:21:05;9.43;;;7.00;;
12145;SDS011;6136;47.032;15.398;2023-05-23T00:23:35;10.47;;;7.73;;
12145;SDS011;6136;47.032;15.398;2023-05-23T00:26:03;8.13;;;7.27;;
12145;SDS011;6136;47.032;15.398;2023-05-23T00:28:33;7.63;;;6.83;;
12145;SDS011;6136;47.032;15.398;2023-05-23T00:31:02;10.37;;;7.27;;
12145;SDS011;6136;47.032;15.398;2023-05-23T00:33:30;8.17;;;6.77;;
12145;SDS011;6136;47.032;15.398;2023-05-23T00:36:00;9.10;;;6.47;;
12145;SDS011;6136;47.032;15.398;2023-05-23T00:38:29;12.73;;;7.13;;
12145;SDS011;6136;47.032;15.398;2023-05-23T00:40:57;10.57;;;6.63;;
12145;SDS011;6136;47.032;15.398;2023-05-23T00:43:25;9.43;;;6.70;;
12145;SDS011;6136;47.032;15.398;2023-05-23T00:45:56;7.07;;;6.30;;
12145;SDS011;6136;47.032;15.398;2023-05-23T00:48:24;7.57;;;6.37;;
12145;SDS011;6136;47.032;15.398;2023-05-23T00:50:53;9.60;;;6.73;;
12145;SDS011;6136;47.032;15.398;2023-05-23T00:53:22;6.87;;;6.17;;
12145;SDS011;6136;47.032;15.398;2023-05-23T00:55:51;9.67;;;6.80;;
12145;SDS011;6136;47.032;15.398;2023-05-23T00:58:19;7.50;;;6.17;;
12145;SDS011;6136;47.032;15.398;2023-05-23T01:00:48;10.77;;;6.20;;
12145;SDS011;6136;47.032;15.398;2023-05-23T01:03:21;8.13;;;7.27;;
12145;SDS011;6136;47.032;15.398;2023-05-23T01:05:54;8.57;;;7.17;;
12145;SDS011;6136;47.032;15.398;2023-05-23T01:08:22;9.83;;;6.73;;
12145;SDS011;6136;47.032;15.398;2023-05-23T01:10:50;10.17;;;6.67;;
12145;SDS011;6136;47.032;15.398;2023-05-23T01:13:21;10.50;;;6.87;;
12145;SDS011;6136;47.032;15.398;2023-05-23T01:16:00;7.90;;;6.60;;
12145;SDS011;6136;47.032;15.398;2023-05-23T01:18:36;10.57;;;6.63;;
12145;SDS011;6136;47.032;15.398;2023-05-23T01:21:08;8.10;;;7.00;;
12145;SDS011;6136;47.032;15.398;2023-05-23T01:26:52;8.97;;;6.87;;
12145;SDS011;6136;47.032;15.398;2023-05-23T01:29:31;9.87;;;7.60;;
12145;SDS011;6136;47.032;15.398;2023-05-23T01:32:01;9.67;;;6.70;;
12145;SDS011;6136;47.032;15.398;2023-05-23T01:34:32;8.53;;;7.30;;
12145;SDS011;6136;47.032;15.398;2023-05-23T01:37:05;8.40;;;7.10;;
12145;SDS011;6136;47.032;15.398;2023-05-23T01:39:37;8.20;;;6.57;;
12145;SDS011;6136;47.032;15.398;2023-05-23T01:42:05;10.33;;;7.93;;
12145;SDS011;6136;47.032;15.398;2023-05-23T01:44:37;8.43;;;6.63;;
12145;SDS011;6136;47.032;15.398;2023-05-23T01:47:07;7.67;;;6.47;;
12145;SDS011;6136;47.032;15.398;2023-05-23T01:49:36;12.00;;;7.60;;
12145;SDS011;6136;47.032;15.398;2023-05-23T01:52:05;7.87;;;6.57;;
12145;SDS011;6136;47.032;15.398;2023-05-23T01:54:37;8.23;;;6.87;;
12145;SDS011;6136;47.032;15.398;2023-05-23T01:57:09;7.83;;;6.10;;
12145;SDS011;6136;47.032;15.398;2023-05-23T01:59:39;9.70;;;6.40;;
12145;SDS011;6136;47.032;15.398;2023-05-23T02:02:07;7.40;;;6.27;;
12145;SDS011;6136;47.032;15.398;2023-05-23T02:04:35;8.83;;;7.20;;
12145;SDS011;6136;47.032;15.398;2023-05-23T02:07:04;8.33;;;6.67;;
12145;SDS011;6136;47.032;15.398;2023-05-23T02:09:32;8.70;;;7.17;;
12145;SDS011;6136;47.032;15.398;2023-05-23T02:12:01;7.87;;;5.97;;
12145;SDS011;6136;47.032;15.398;2023-05-23T02:14:29;8.63;;;6.73;;
12145;SDS011;6136;47.032;15.398;2023-05-23T02:16:58;13.43;;;7.90;;
12145;SDS011;6136;47.032;15.398;2023-05-23T02:19:27;12.20;;;7.10;;
12145;SDS011;6136;47.032;15.398;2023-05-23T02:21:55;7.90;;;6.90;;
12145;SDS011;6136;47.032;15.398;2023-05-23T02:24:23;11.17;;;7.00;;
12145;SDS011;6136;47.032;15.398;2023-05-23T02:26:51;8.37;;;7.17;;
12145;SDS011;6136;47.032;15.398;2023-05-23T02:29:20;10.00;;;7.90;;
12145;SDS011;6136;47.032;15.398;2023-05-23T02:31:48;9.40;;;7.47;;
12145;SDS011;6136;47.032;15.398;2023-05-23T02:34:18;9.70;;;7.27;;
12145;SDS011;6136;47.032;15.398;2023-05-23T02:36:46;8.60;;;7.53;;
12145;SDS011;6136;47.032;15.398;2023-05-23T02:39:14;10.23;;;8.10;;
12145;SDS011;6136;47.032;15.398;2023-05-23T02:41:44;10.37;;;7.60;;
12145;SDS011;6136;47.032;15.398;2023-05-23T02:44:12;10.30;;;7.70;;
12145;SDS011;6136;47.032;15.398;2023-05-23T02:46:40;13.63;;;7.77;;
12145;SDS011;6136;47.032;15.398;2023-05-23T02:49:09;9.93;;;8.50;;
12145;SDS011;6136;47.032;15.398;2023-05-23T02:51:38;12.57;;;8.50;;
12145;SDS011;6136;47.032;15.398;2023-05-23T02:54:06;10.17;;;7.87;;
12145;SDS011;6136;47.032;15.398;2023-05-23T02:56:36;14.33;;;8.07;;
12145;SDS011;6136;47.032;15.398;2023-05-23T02:59:04;9.87;;;8.00;;
12145;SDS011;6136;47.032;15.398;2023-05-23T03:01:33;12.70;;;8.90;;
12145;SDS011;6136;47.032;15.398;2023-05-23T03:04:01;10.23;;;8.20;;
12145;SDS011;6136;47.032;15.398;2023-05-23T03:06:30;14.23;;;9.43;;
12145;SDS011;6136;47.032;15.398;2023-05-23T03:09:01;8.13;;;7.20;;
12145;SDS011;6136;47.032;15.398;2023-05-23T03:11:30;9.67;;;7.60;;
12145;SDS011;6136;47.032;15.398;2023-05-23T03:13:58;16.27;;;8.73;;
12145;SDS011;6136;47.032;15.398;2023-05-23T03:16:26;13.70;;;8.63;;
12145;SDS011;6136;47.032;15.398;2023-05-23T03:18:55;10.77;;;7.90;;
12145;SDS011;6136;47.032;15.398;2023-05-23T03:21:23;10.30;;;8.20;;
12145;SDS011;6136;47.032;15.398;2023-05-23T03:23:51;9.77;;;7.53;;
12145;SDS011;6136;47.032;15.398;2023-05-23T03:26:22;14.60;;;8.87;;
12145;SDS011;6136;47.032;15.398;2023-05-23T03:28:51;13.40;;;7.77;;
12145;SDS011;6136;47.032;15.398;2023-05-23T03:31:19;12.23;;;8.27;;
12145;SDS011;6136;47.032;15.398;2023-05-23T03:33:47;10.50;;;8.03;;
12145;SDS011;6136;47.032;15.398;2023-05-23T03:36:15;12.17;;;8.23;;
12145;SDS011;6136;47.032;15.398;2023-05-23T03:38:44;11.13;;;8.07;;
12145;SDS011;6136;47.032;15.398;2023-05-23T03:41:13;8.80;;;7.00;;
12145;SDS011;6136;47.032;15.398;2023-05-23T03:43:44;8.70;;;7.30;;
12145;SDS011;6136;47.032;15.398;2023-05-23T03:46:12;9.27;;;7.73;;
12145;SDS011;6136;47.032;15.398;2023-05-23T03:48:40;12.67;;;9.60;;
12145;SDS011;6136;47.032;15.398;2023-05-23T03:51:09;15.50;;;9.50;;
12145;SDS011;6136;47.032;15.398;2023-05-23T03:53:39;11.63;;;8.10;;
12145;SDS011;6136;47.032;15.398;2023-05-23T03:56:08;10.77;;;7.87;;
12145;SDS011;6136;47.032;15.398;2023-05-23T03:58:36;11.73;;;7.97;;
12145;SDS011;6136;47.032;15.398;2023-05-23T04:01:11;10.67;;;7.50;;
12145;SDS011;6136;47.032;15.398;2023-05-23T04:03:40;12.40;;;7.87;;
12145;SDS011;6136;47.032;15.398;2023-05-23T04:06:08;10.57;;;8.40;;
12145;SDS011;6136;47.032;15.398;2023-05-23T04:08:42;15.33;;;7.80;;
12145;SDS011;6136;47.032;15.398;2023-05-23T04:11:10;8.47;;;7.20;;
12145;SDS011;6136;47.032;15.398;2023-05-23T04:13:40;11.63;;;8.87;;
12145;SDS011;6136;47.032;15.398;2023-05-23T04:16:09;16.77;;;9.63;;
12145;SDS011;6136;47.032;15.398;2023-05-23T04:18:39;12.17;;;9.10;;
12145;SDS011;6136;47.032;15.398;2023-05-23T04:21:09;12.53;;;9.93;;
12145;SDS011;6136;47.032;15.398;2023-05-23T04:23:45;15.07;;;10.27;;
12145;SDS011;6136;47.032;15.398;2023-05-23T04:26:13;13.53;;;10.13;;
12145;SDS011;6136;47.032;15.398;2023-05-23T04:28:47;11.10;;;8.73;;
12145;SDS011;6136;47.032;15.398;2023-05-23T04:31:15;11.93;;;9.03;;
12145;SDS011;6136;47.032;15.398;2023-05-23T04:33:46;10.63;;;8.53;;
12145;SDS011;6136;47.032;15.398;2023-05-23T04:36:17;15.27;;;9.13;;
12145;SDS011;6136;47.032;15.398;2023-05-23T04:38:50;11.20;;;9.53;;
12145;SDS011;6136;47.032;15.398;2023-05-23T04:41:19;12.37;;;10.30;;
12145;SDS011;6136;47.032;15.398;2023-05-23T04:44:21;12.53;;;9.23;;
12145;SDS011;6136;47.032;15.398;2023-05-23T04:47:02;15.73;;;9.40;;
12145;SDS011;6136;47.032;15.398;2023-05-23T04:49:46;10.80;;;8.23;;
12145;SDS011;6136;47.032;15.398;2023-05-23T04:52:15;13.73;;;8.70;;
12145;SDS011;6136;47.032;15.398;2023-05-23T04:54:44;13.73;;;9.33;;
12145;SDS011;6136;47.032;15.398;2023-05-23T04:57:14;12.07;;;8.50;;
12145;SDS011;6136;47.032;15.398;2023-05-23T04:59:42;11.13;;;8.53;;
12145;SDS011;6136;47.032;15.398;2023-05-23T05:02:12;14.23;;;9.37;;
12145;SDS011;6136;47.032;15.398;2023-05-23T05:04:40;12.83;;;9.03;;
12145;SDS011;6136;47.032;15.398;2023-05-23T05:07:10;10.80;;;9.40;;
12145;SDS011;6136;47.032;15.398;2023-05-23T05:09:38;13.87;;;10.00;;
12145;SDS011;6136;47.032;15.398;2023-05-23T05:12:09;17.80;;;10.40;;
12145;SDS011;6136;47.032;15.398;2023-05-23T05:14:38;11.00;;;9.17;;
12145;SDS011;6136;47.032;15.398;2023-05-23T05:17:07;13.70;;;9.17;;
12145;SDS011;6136;47.032;15.398;2023-05-23T05:19:48;14.47;;;9.60;;
12145;SDS011;6136;47.032;15.398;2023-05-23T05:22:18;14.83;;;9.83;;
12145;SDS011;6136;47.032;15.398;2023-05-23T05:24:47;12.80;;;8.97;;
12145;SDS011;6136;47.032;15.398;2023-05-23T05:27:15;16.73;;;9.60;;
12145;SDS011;6136;47.032;15.398;2023-05-23T05:29:43;15.17;;;10.20;;
12145;SDS011;6136;47.032;15.398;2023-05-23T05:32:11;15.20;;;8.83;;
12145;SDS011;6136;47.032;15.398;2023-05-23T05:34:39;14.23;;;10.03;;
12145;SDS011;6136;47.032;15.398;2023-05-23T05:37:08;13.50;;;9.17;;
12145;SDS011;6136;47.032;15.398;2023-05-23T05:39:41;16.77;;;10.33;;
12145;SDS011;6136;47.032;15.398;2023-05-23T05:42:10;14.13;;;10.57;;
12145;SDS011;6136;47.032;15.398;2023-05-23T05:44:39;13.97;;;9.07;;
12145;SDS011;6136;47.032;15.398;2023-05-23T05:47:07;12.30;;;8.90;;
12145;SDS011;6136;47.032;15.398;2023-05-23T05:49:35;18.03;;;10.07;;
12145;SDS011;6136;47.032;15.398;2023-05-23T05:52:03;16.33;;;9.47;;
12145;SDS011;6136;47.032;15.398;2023-05-23T05:54:32;11.17;;;9.23;;
12145;SDS011;6136;47.032;15.398;2023-05-23T05:57:03;16.77;;;9.37;;
12145;SDS011;6136;47.032;15.398;2023-05-23T05:59:31;15.18;;;9.57;;
12145;SDS011;6136;47.032;15.398;2023-05-23T06:01:59;23.93;;;9.80;;
12145;SDS011;6136;47.032;15.398;2023-05-23T06:04:28;19.08;;;9.23;;
12145;SDS011;6136;47.032;15.398;2023-05-23T06:06:57;19.20;;;11.07;;
12145;SDS011;6136;47.032;15.398;2023-05-23T06:09:25;17.00;;;8.57;;
12145;SDS011;6136;47.032;15.398;2023-05-23T06:11:53;12.82;;;8.40;;
12145;SDS011;6136;47.032;15.398;2023-05-23T06:14:23;16.95;;;9.05;;
12145;SDS011;6136;47.032;15.398;2023-05-23T06:16:52;14.38;;;8.82;;
12145;SDS011;6136;47.032;15.398;2023-05-23T06:19:20;13.68;;;8.90;;
12145;SDS011;6136;47.032;15.398;2023-05-23T06:21:49;18.27;;;8.18;;
12145;SDS011;6136;47.032;15.398;2023-05-23T06:24:18;19.15;;;8.52;;
12145;SDS011;6136;47.032;15.398;2023-05-23T06:26:46;17.50;;;7.88;;
12145;SDS011;6136;47.032;15.398;2023-05-23T06:29:15;11.75;;;8.45;;
12145;SDS011;6136;47.032;15.398;2023-05-23T06:31:44;15.55;;;8.38;;
12145;SDS011;6136;47.032;15.398;2023-05-23T06:34:13;11.60;;;7.65;;
12145;SDS011;6136;47.032;15.398;2023-05-23T06:36:41;14.93;;;7.90;;
12145;SDS011;6136;47.032;15.398;2023-05-23T06:39:09;12.60;;;7.93;;
12145;SDS011;6136;47.032;15.398;2023-05-23T06:41:37;15.43;;;9.00;;
12145;SDS011;6136;47.032;15.398;2023-05-23T06:44:06;16.92;;;8.27;;
12145;SDS011;6136;47.032;15.398;2023-05-23T06:46:39;12.50;;;7.63;;
12145;SDS011;6136;47.032;15.398;2023-05-23T06:49:08;11.90;;;8.38;;
12145;SDS011;6136;47.032;15.398;2023-05-23T06:51:42;16.75;;;7.78;;
12145;SDS011;6136;47.032;15.398;2023-05-23T06:54:11;11.80;;;7.47;;
12145;SDS011;6136;47.032;15.398;2023-05-23T06:56:39;12.45;;;7.30;;
12145;SDS011;6136;47.032;15.398;2023-05-23T06:59:08;18.60;;;8.15;;
12145;SDS011;6136;47.032;15.398;2023-05-23T07:01:37;14.77;;;7.07;;
12145;SDS011;6136;47.032;15.398;2023-05-23T07:04:06;14.43;;;7.63;;
12145;SDS011;6136;47.032;15.398;2023-05-23T07:06:35;10.60;;;7.15;;
12145;SDS011;6136;47.032;15.398;2023-05-23T07:09:06;8.38;;;7.45;;
12145;SDS011;6136;47.032;15.398;2023-05-23T07:11:35;10.23;;;7.35;;
12145;SDS011;6136;47.032;15.398;2023-05-23T07:14:05;21.08;;;6.93;;
12145;SDS011;6136;47.032;15.398;2023-05-23T07:16:42;11.98;;;8.38;;
12145;SDS011;6136;47.032;15.398;2023-05-23T07:19:11;10.75;;;7.50;;
12145;SDS011;6136;47.032;15.398;2023-05-23T07:21:47;8.23;;;6.72;;
12145;SDS011;6136;47.032;15.398;2023-05-23T07:24:17;13.88;;;8.25;;
12145;SDS011;6136;47.032;15.398;2023-05-23T07:26:46;12.57;;;7.32;;
12145;SDS011;6136;47.032;15.398;2023-05-23T07:29:14;11.20;;;6.57;;
12145;SDS011;6136;47.032;15.398;2023-05-23T07:31:44;8.45;;;6.45;;
12145;SDS011;6136;47.032;15.398;2023-05-23T07:34:13;10.23;;;7.20;;
12145;SDS011;6136;47.032;15.398;2023-05-23T07:36:55;6.97;;;6.25;;
12145;SDS011;6136;47.032;15.398;2023-05-23T07:39:25;10.10;;;6.97;;
12145;SDS011;6136;47.032;15.398;2023-05-23T07:41:56;18.65;;;6.65;;
12145;SDS011;6136;47.032;15.398;2023-05-23T07:44:24;7.35;;;6.53;;
12145;SDS011;6136;47.032;15.398;2023-05-23T07:46:53;10.00;;;6.45;;
12145;SDS011;6136;47.032;15.398;2023-05-23T07:49:22;9.05;;;7.13;;
12145;SDS011;6136;47.032;15.398;2023-05-23T07:51:52;9.40;;;6.30;;
12145;SDS011;6136;47.032;15.398;2023-05-23T07:54:22;9.90;;;6.80;;
12145;SDS011;6136;47.032;15.398;2023-05-23T07:56:55;10.57;;;7.43;;
12145;SDS011;6136;47.032;15.398;2023-05-23T07:59:24;10.65;;;6.88;;
12145;SDS011;6136;47.032;15.398;2023-05-23T08:01:53;7.68;;;6.88;;
12145;SDS011;6136;47.032;15.398;2023-05-23T08:04:23;12.15;;;7.65;;
12145;SDS011;6136;47.032;15.398;2023-05-23T08:06:53;10.23;;;7.03;;
12145;SDS011;6136;47.032;15.398;2023-05-23T08:09:29;11.05;;;7.30;;
12145;SDS011;6136;47.032;15.398;2023-05-23T08:11:58;11.48;;;7.15;;
12145;SDS011;6136;47.032;15.398;2023-05-23T08:14:27;10.80;;;6.72;;
12145;SDS011;6136;47.032;15.398;2023-05-23T08:17:41;7.10;;;6.40;;
12145;SDS011;6136;47.032;15.398;2023-05-23T08:20:10;11.43;;;6.50;;
12145;SDS011;6136;47.032;15.398;2023-05-23T08:22:39;9.50;;;6.10;;
12145;SDS011;6136;47.032;15.398;2023-05-23T08:25:10;9.82;;;6.93;;
12145;SDS011;6136;47.032;15.398;2023-05-23T08:27:39;6.97;;;6.22;;
12145;SDS011;6136;47.032;15.398;2023-05-23T08:30:30;10.10;;;6.82;;
12145;SDS011;6136;47.032;15.398;2023-05-23T08:32:59;9.80;;;6.40;;
12145;SDS011;6136;47.032;15.398;2023-05-23T08:35:31;9.27;;;6.10;;
12145;SDS011;6136;47.032;15.398;2023-05-23T08:38:05;6.75;;;6.13;;
12145;SDS011;6136;47.032;15.398;2023-05-23T08:40:39;8.95;;;6.80;;
12145;SDS011;6136;47.032;15.398;2023-05-23T08:43:12;15.68;;;6.65;;
12145;SDS011;6136;47.032;15.398;2023-05-23T08:45:41;8.98;;;6.45;;
12145;SDS011;6136;47.032;15.398;2023-05-23T08:48:10;6.82;;;6.13;;
12145;SDS011;6136;47.032;15.398;2023-05-23T08:50:45;7.13;;;6.13;;
12145;SDS011;6136;47.032;15.398;2023-05-23T08:53:16;6.82;;;6.13;;
12145;SDS011;6136;47.032;15.398;2023-05-23T08:55:52;9.07;;;6.72;;
12145;SDS011;6136;47.032;15.398;2023-05-23T08:58:29;7.25;;;6.55;;
12145;SDS011;6136;47.032;15.398;2023-05-23T09:01:00;7.90;;;6.43;;
12145;SDS011;6136;47.032;15.398;2023-05-23T09:03:30;7.88;;;6.72;;
12145;SDS011;6136;47.032;15.398;2023-05-23T09:06:27;7.35;;;6.32;;
12145;SDS011;6136;47.032;15.398;2023-05-23T09:08:57;7.03;;;6.38;;
12145;SDS011;6136;47.032;15.398;2023-05-23T09:11:26;6.78;;;6.18;;
12145;SDS011;6136;47.032;15.398;2023-05-23T09:13:56;8.52;;;6.20;;
12145;SDS011;6136;47.032;15.398;2023-05-23T09:16:30;10.65;;;6.75;;
12145;SDS011;6136;47.032;15.398;2023-05-23T09:19:08;9.60;;;6.45;;
12145;SDS011;6136;47.032;15.398;2023-05-23T09:21:41;8.68;;;5.90;;
12145;SDS011;6136;47.032;15.398;2023-05-23T09:24:15;7.55;;;5.90;;
12145;SDS011;6136;47.032;15.398;2023-05-23T09:26:46;8.50;;;6.10;;
12145;SDS011;6136;47.032;15.398;2023-05-23T09:29:18;10.60;;;6.43;;
12145;SDS011;6136;47.032;15.398;2023-05-23T09:31:47;13.00;;;7.00;;
12145;SDS011;6136;47.032;15.398;2023-05-23T09:34:15;6.95;;;5.97;;
12145;SDS011;6136;47.032;15.398;2023-05-23T09:36:43;9.73;;;5.55;;
12145;SDS011;6136;47.032;15.398;2023-05-23T09:39:14;10.45;;;6.35;;
12145;SDS011;6136;47.032;15.398;2023-05-23T09:41:42;9.07;;;6.03;;
12145;SDS011;6136;47.032;15.398;2023-05-23T09:44:14;7.07;;;6.38;;
12145;SDS011;6136;47.032;15.398;2023-05-23T09:46:50;7.75;;;6.40;;
12145;SDS011;6136;47.032;15.398;2023-05-23T09:49:20;7.43;;;6.18;;
12145;SDS011;6136;47.032;15.398;2023-05-23T09:51:55;7.18;;;6.43;;
12145;SDS011;6136;47.032;15.398;2023-05-23T09:54:24;7.65;;;6.85;;
12145;SDS011;6136;47.032;15.398;2023-05-23T09:56:52;11.43;;;6.68;;
12145;SDS011;6136;47.032;15.398;2023-05-23T09:59:24;6.72;;;6.13;;
12145;SDS011;6136;47.032;15.398;2023-05-23T10:01:56;12.93;;;6.22;;
12145;SDS011;6136;47.032;15.398;2023-05-23T10:04:30;9.93;;;6.20;;
12145;SDS011;6136;47.032;15.398;2023-05-23T10:07:04;6.28;;;5.65;;
12145;SDS011;6136;47.032;15.398;2023-05-23T10:09:37;7.80;;;6.22;;
12145;SDS011;6136;47.032;15.398;2023-05-23T10:15:10;7.35;;;6.30;;
12145;SDS011;6136;47.032;15.398;2023-05-23T10:20:34;6.28;;;5.68;;
12145;SDS011;6136;47.032;15.398;2023-05-23T10:23:03;11.05;;;6.15;;
12145;SDS011;6136;47.032;15.398;2023-05-23T10:25:32;8.90;;;6.25;;
12145;SDS011;6136;47.032;15.398;2023-05-23T10:28:02;8.95;;;5.22;;
12145;SDS011;6136;47.032;15.398;2023-05-23T10:30:33;8.57;;;6.93;;
12145;SDS011;6136;47.032;15.398;2023-05-23T10:33:02;6.90;;;5.80;;
12145;SDS011;6136;47.032;15.398;2023-05-23T10:35:36;7.43;;;6.65;;
12145;SDS011;6136;47.032;15.398;2023-05-23T10:38:11;6.32;;;5.72;;
12145;SDS011;6136;47.032;15.398;2023-05-23T10:40:49;7.65;;;6.88;;
12145;SDS011;6136;47.032;15.398;2023-05-23T10:43:24;6.13;;;5.53;;
12145;SDS011;6136;47.032;15.398;2023-05-23T10:45:57;6.55;;;6.05;;
12145;SDS011;6136;47.032;15.398;2023-05-23T10:48:31;6.85;;;6.15;;
12145;SDS011;6136;47.032;15.398;2023-05-23T10:51:01;8.43;;;5.80;;
12145;SDS011;6136;47.032;15.398;2023-05-23T10:53:31;6.38;;;5.80;;
12145;SDS011;6136;47.032;15.398;2023-05-23T10:56:06;8.23;;;6.35;;
12145;SDS011;6136;47.032;15.398;2023-05-23T10:58:35;6.97;;;6.32;;
12145;SDS011;6136;47.032;15.398;2023-05-23T11:01:06;7.78;;;6.03;;
12145;SDS011;6136;47.032;15.398;2023-05-23T11:03:37;6.45;;;5.85;;
12145;SDS011;6136;47.032;15.398;2023-05-23T11:06:27;8.20;;;5.68;;
12145;SDS011;6136;47.032;15.398;2023-05-23T11:09:01;8.93;;;5.80;;
12145;SDS011;6136;47.032;15.398;2023-05-23T11:14:30;9.27;;;6.57;;
12145;SDS011;6136;47.032;15.398;2023-05-23T11:17:13;6.20;;;5.60;;
12145;SDS011;6136;47.032;15.398;2023-05-23T11:19:55;8.23;;;5.97;;
12145;SDS011;6136;47.032;15.398;2023-05-23T11:22:26;11.27;;;6.53;;
12145;SDS011;6136;47.032;15.398;2023-05-23T11:24:56;13.32;;;6.43;;
12145;SDS011;6136;47.032;15.398;2023-05-23T11:27:26;11.85;;;6.75;;
12145;SDS011;6136;47.032;15.398;2023-05-23T11:29:58;9.13;;;6.65;;
12145;SDS011;6136;47.032;15.398;2023-05-23T11:32:30;8.10;;;5.97;;
12145;SDS011;6136;47.032;15.398;2023-05-23T11:34:59;6.47;;;5.85;;
12145;SDS011;6136;47.032;15.398;2023-05-23T11:37:28;8.13;;;6.28;;
12145;SDS011;6136;47.032;15.398;2023-05-23T11:39:57;7.13;;;6.00;;
12145;SDS011;6136;47.032;15.398;2023-05-23T11:42:27;8.13;;;6.30;;
12145;SDS011;6136;47.032;15.398;2023-05-23T11:44:55;6.00;;;5.40;;
12145;SDS011;6136;47.032;15.398;2023-05-23T11:47:24;6.43;;;5.88;;
12145;SDS011;6136;47.032;15.398;2023-05-23T11:49:53;8.20;;;5.45;;
12145;SDS011;6136;47.032;15.398;2023-05-23T11:52:21;6.20;;;5.60;;
12145;SDS011;6136;47.032;15.398;2023-05-23T11:54:50;6.90;;;5.20;;
12145;SDS011;6136;47.032;15.398;2023-05-23T11:57:21;4.85;;;4.20;;
12145;SDS011;6136;47.032;15.398;2023-05-23T11:59:49;5.95;;;4.15;;
12145;SDS011;6136;47.032;15.398;2023-05-23T12:02:19;5.20;;;3.58;;
12145;SDS011;6136;47.032;15.398;2023-05-23T12:04:48;7.28;;;3.80;;
12145;SDS011;6136;47.032;15.398;2023-05-23T12:07:19;7.47;;;3.72;;
12145;SDS011;6136;47.032;15.398;2023-05-23T12:09:47;3.83;;;3.47;;
12145;SDS011;6136;47.032;15.398;2023-05-23T12:12:16;8.50;;;4.40;;
12145;SDS011;6136;47.032;15.398;2023-05-23T12:14:46;5.45;;;4.13;;
12145;SDS011;6136;47.032;15.398;2023-05-23T12:17:14;9.93;;;4.70;;
12145;SDS011;6136;47.032;15.398;2023-05-23T12:19:44;9.60;;;4.53;;
12145;SDS011;6136;47.032;15.398;2023-05-23T12:22:13;15.93;;;5.78;;
12145;SDS011;6136;47.032;15.398;2023-05-23T12:24:46;7.60;;;4.70;;
12145;SDS011;6136;47.032;15.398;2023-05-23T12:27:15;9.32;;;5.80;;
12145;SDS011;6136;47.032;15.398;2023-05-23T12:29:48;8.40;;;4.75;;
12145;SDS011;6136;47.032;15.398;2023-05-23T12:32:18;10.88;;;4.88;;
12145;SDS011;6136;47.032;15.398;2023-05-23T12:34:47;6.05;;;5.03;;
12145;SDS011;6136;47.032;15.398;2023-05-23T12:37:16;8.25;;;5.30;;
12145;SDS011;6136;47.032;15.398;2023-05-23T12:39:56;6.95;;;5.18;;
12145;SDS011;6136;47.032;15.398;2023-05-23T12:42:25;7.88;;;5.55;;
12145;SDS011;6136;47.032;15.398;2023-05-23T12:44:56;10.27;;;5.35;;
12145;SDS011;6136;47.032;15.398;2023-05-23T12:47:24;12.50;;;5.18;;
12145;SDS011;6136;47.032;15.398;2023-05-23T12:49:53;7.60;;;5.03;;
12145;SDS011;6136;47.032;15.398;2023-05-23T12:52:21;7.55;;;4.95;;
12145;SDS011;6136;47.032;15.398;2023-05-23T12:54:50;9.32;;;6.43;;
12145;SDS011;6136;47.032;15.398;2023-05-23T12:57:20;11.10;;;6.18;;
12145;SDS011;6136;47.032;15.398;2023-05-23T12:59:48;9.30;;;6.30;;
12145;SDS011;6136;47.032;15.398;2023-05-23T13:02:16;8.23;;;6.40;;
12145;SDS011;6136;47.032;15.398;2023-05-23T13:04:45;9.68;;;6.03;;
12145;SDS011;6136;47.032;15.398;2023-05-23T13:07:13;10.25;;;6.63;;
12145;SDS011;6136;47.032;15.398;2023-05-23T13:09:41;8.37;;;5.93;;
12145;SDS011;6136;47.032;15.398;2023-05-23T13:12:10;10.93;;;6.80;;
12145;SDS011;6136;47.032;15.398;2023-05-23T13:14:40;10.90;;;6.67;;
12145;SDS011;6136;47.032;15.398;2023-05-23T13:17:09;11.63;;;6.20;;
12145;SDS011;6136;47.032;15.398;2023-05-23T13:19:38;10.00;;;6.10;;
12145;SDS011;6136;47.032;15.398;2023-05-23T13:22:06;10.53;;;6.67;;
12145;SDS011;6136;47.032;15.398;2023-05-23T13:24:36;8.90;;;6.57;;
12145;SDS011;6136;47.032;15.398;2023-05-23T13:27:04;8.77;;;6.03;;
12145;SDS011;6136;47.032;15.398;2023-05-23T13:29:33;10.53;;;6.30;;
12145;SDS011;6136;47.032;15.398;2023-05-23T13:32:03;9.15;;;7.10;;
12145;SDS011;6136;47.032;15.398;2023-05-23T13:34:31;9.70;;;7.17;;
12145;SDS011;6136;47.032;15.398;2023-05-23T13:37:03;9.43;;;6.07;;
12145;SDS011;6136;47.032;15.398;2023-05-23T13:39:31;9.77;;;6.43;;
12145;SDS011;6136;47.032;15.398;2023-05-23T13:41:59;6.50;;;5.87;;
12145;SDS011;6136;47.032;15.398;2023-05-23T13:44:28;7.53;;;5.57;;
12145;SDS011;6136;47.032;15.398;2023-05-23T13:46:57;6.77;;;6.13;;
12145;SDS011;6136;47.032;15.398;2023-05-23T13:49:40;10.20;;;6.37;;
12145;SDS011;6136;47.032;15.398;2023-05-23T13:52:11;6.22;;;5.05;;
12145;SDS011;6136;47.032;15.398;2023-05-23T13:54:40;6.47;;;5.10;;
12145;SDS011;6136;47.032;15.398;2023-05-23T13:57:08;7.03;;;4.73;;
12145;SDS011;6136;47.032;15.398;2023-05-23T13:59:37;7.00;;;5.27;;
12145;SDS011;6136;47.032;15.398;2023-05-23T14:02:05;5.75;;;4.75;;
12145;SDS011;6136;47.032;15.398;2023-05-23T14:04:34;5.13;;;4.07;;
12145;SDS011;6136;47.032;15.398;2023-05-23T14:07:04;5.10;;;4.70;;
12145;SDS011;6136;47.032;15.398;2023-05-23T14:09:32;5.72;;;4.55;;
12145;SDS011;6136;47.032;15.398;2023-05-23T14:12:00;4.83;;;3.93;;
12145;SDS011;6136;47.032;15.398;2023-05-23T14:14:29;4.20;;;3.80;;
12145;SDS011;6136;47.032;15.398;2023-05-23T14:16:57;6.50;;;4.53;;
12145;SDS011;6136;47.032;15.398;2023-05-23T14:19:25;5.87;;;4.43;;
12145;SDS011;6136;47.032;15.398;2023-05-23T14:21:53;6.72;;;4.45;;
12145;SDS011;6136;47.032;15.398;2023-05-23T14:24:23;7.10;;;4.60;;
12145;SDS011;6136;47.032;15.398;2023-05-23T14:26:51;5.72;;;4.35;;
12145;SDS011;6136;47.032;15.398;2023-05-23T14:29:19;4.70;;;4.28;;
12145;SDS011;6136;47.032;15.398;2023-05-23T14:31:47;10.25;;;4.63;;
12145;SDS011;6136;47.032;15.398;2023-05-23T14:34:16;5.72;;;4.60;;
12145;SDS011;6136;47.032;15.398;2023-05-23T14:36:44;7.50;;;4.70;;
12145;SDS011;6136;47.032;15.398;2023-05-23T14:39:12;6.30;;;4.47;;
12145;SDS011;6136;47.032;15.398;2023-05-23T14:41:42;5.93;;;5.15;;
12145;SDS011;6136;47.032;15.398;2023-05-23T14:44:12;6.60;;;5.88;;
12145;SDS011;6136;47.032;15.398;2023-05-23T14:46:40;5.93;;;5.32;;
12145;SDS011;6136;47.032;15.398;2023-05-23T14:49:13;6.80;;;5.25;;
12145;SDS011;6136;47.032;15.398;2023-05-23T14:51:42;6.97;;;5.03;;
12145;SDS011;6136;47.032;15.398;2023-05-23T14:54:17;7.97;;;5.50;;
12145;SDS011;6136;47.032;15.398;2023-05-23T14:56:46;5.13;;;4.68;;
12145;SDS011;6136;47.032;15.398;2023-05-23T14:59:18;8.13;;;4.97;;
12145;SDS011;6136;47.032;15.398;2023-05-23T15:01:47;5.78;;;5.15;;
12145;SDS011;6136;47.032;15.398;2023-05-23T15:04:15;6.30;;;4.70;;
12145;SDS011;6136;47.032;15.398;2023-05-23T15:06:44;7.13;;;5.07;;
12145;SDS011;6136;47.032;15.398;2023-05-23T15:09:12;6.32;;;5.18;;
12145;SDS011;6136;47.032;15.398;2023-05-23T15:11:41;7.05;;;5.10;;